sensor_id;sensor_type;location;lat;lon;timestamp;P1;durP1;ratioP1;P2;durP2;ratioP2
15536;SDS011;7870;52.448;13.270;2023-07-08T00:00:34;7.07;;;5.22;;
15536;SDS011;7870;52.448;13.270;2023-07-08T00:03:00;7.05;;;5.20;;
15536;SDS011;7870;52.448;13.270;2023-07-08T00:05:26;7.30;;;5.05;;
15536;SDS011;7870;52.448;13.270;2023-07-08T00:07:53;7.93;;;5.22;;
15536;SDS011;7870;52.448;13.270;2023-07-08T00:10:20;6.07;;;5.20;;
15536;SDS011;7870;52.448;13.270;2023-07-08T00:12:48;7.35;;;5.47;;
15536;SDS011;7870;52.448;13.270;2023-07-08T00:15:15;5.60;;;4.68;;
15536;SDS011;7870;52.448;13.270;2023-07-08T00:17:42;6.45;;;4.80;;
15536;SDS011;7870;52.448;13.270;2023-07-08T00:20:11;6.28;;;4.88;;
15536;SDS011;7870;52.448;13.270;2023-07-08T00:22:38;7.63;;;5.38;;
15536;SDS011;7870;52.448;13.270;2023-07-08T00:25:07;5.93;;;5.20;;
15536;SDS011;7870;52.448;13.270;2023-07-08T00:27:34;6.93;;;4.88;;
15536;SDS011;7870;52.448;13.270;2023-07-08T00:30:00;8.05;;;5.53;;
15536;SDS011;7870;52.448;13.270;2023-07-08T00:32:26;8.15;;;5.68;;
15536;SDS011;7870;52.448;13.270;2023-07-08T00:34:53;8.88;;;5.22;;
15536;SDS011;7870;52.448;13.270;2023-07-08T00:37:19;8.02;;;5.78;;
15536;SDS011;7870;52.448;13.270;2023-07-08T00:39:46;7.75;;;6.05;;
15536;SDS011;7870;52.448;13.270;2023-07-08T00:42:14;9.57;;;5.30;;
15536;SDS011;7870;52.448;13.270;2023-07-08T00:44:41;6.13;;;5.35;;
15536;SDS011;7870;52.448;13.270;2023-07-08T00:47:09;5.70;;;5.10;;
15536;SDS011;7870;52.448;13.270;2023-07-08T00:49:48;8.23;;;5.60;;
15536;SDS011;7870;52.448;13.270;2023-07-08T00:52:35;7.07;;;5.65;;
15536;SDS011;7870;52.448;13.270;2023-07-08T00:55:03;7.75;;;5.60;;
15536;SDS011;7870;52.448;13.270;2023-07-08T00:57:33;7.85;;;5.80;;
15536;SDS011;7870;52.448;13.270;2023-07-08T01:00:05;8.93;;;5.75;;
15536;SDS011;7870;52.448;13.270;2023-07-08T01:02:33;10.48;;;5.82;;
15536;SDS011;7870;52.448;13.270;2023-07-08T01:05:10;8.15;;;6.25;;
15536;SDS011;7870;52.448;13.270;2023-07-08T01:07:38;6.53;;;4.82;;
15536;SDS011;7870;52.448;13.270;2023-07-08T01:10:08;8.73;;;5.40;;
15536;SDS011;7870;52.448;13.270;2023-07-08T01:12:40;8.60;;;5.65;;
15536;SDS011;7870;52.448;13.270;2023-07-08T01:15:08;7.13;;;5.10;;
15536;SDS011;7870;52.448;13.270;2023-07-08T01:17:36;10.90;;;6.18;;
15536;SDS011;7870;52.448;13.270;2023-07-08T01:20:03;6.10;;;5.43;;
15536;SDS011;7870;52.448;13.270;2023-07-08T01:22:36;6.90;;;5.17;;
15536;SDS011;7870;52.448;13.270;2023-07-08T01:25:02;7.05;;;5.75;;
15536;SDS011;7870;52.448;13.270;2023-07-08T01:27:30;8.55;;;5.32;;
15536;SDS011;7870;52.448;13.270;2023-07-08T01:29:59;7.18;;;5.47;;
15536;SDS011;7870;52.448;13.270;2023-07-08T01:32:27;6.72;;;5.07;;
15536;SDS011;7870;52.448;13.270;2023-07-08T01:34:54;6.78;;;6.07;;
15536;SDS011;7870;52.448;13.270;2023-07-08T01:37:33;8.57;;;5.55;;
15536;SDS011;7870;52.448;13.270;2023-07-08T01:40:16;5.78;;;5.18;;
15536;SDS011;7870;52.448;13.270;2023-07-08T01:42:43;7.38;;;5.60;;
15536;SDS011;7870;52.448;13.270;2023-07-08T01:45:13;6.03;;;5.10;;
15536;SDS011;7870;52.448;13.270;2023-07-08T01:47:41;8.13;;;5.35;;
15536;SDS011;7870;52.448;13.270;2023-07-08T01:50:08;7.65;;;6.32;;
15536;SDS011;7870;52.448;13.270;2023-07-08T01:52:35;6.15;;;5.55;;
15536;SDS011;7870;52.448;13.270;2023-07-08T01:55:02;9.20;;;5.80;;
15536;SDS011;7870;52.448;13.270;2023-07-08T01:57:29;7.65;;;5.30;;
15536;SDS011;7870;52.448;13.270;2023-07-08T01:59:55;8.18;;;5.82;;
15536;SDS011;7870;52.448;13.270;2023-07-08T02:02:22;6.55;;;5.60;;
15536;SDS011;7870;52.448;13.270;2023-07-08T02:04:50;6.50;;;5.78;;
15536;SDS011;7870;52.448;13.270;2023-07-08T02:07:16;7.47;;;5.70;;
15536;SDS011;7870;52.448;13.270;2023-07-08T02:09:43;8.23;;;6.13;;
15536;SDS011;7870;52.448;13.270;2023-07-08T02:12:09;7.07;;;5.60;;
15536;SDS011;7870;52.448;13.270;2023-07-08T02:14:36;6.95;;;5.63;;
15536;SDS011;7870;52.448;13.270;2023-07-08T02:17:03;7.30;;;5.75;;
15536;SDS011;7870;52.448;13.270;2023-07-08T02:19:31;6.60;;;5.60;;
15536;SDS011;7870;52.448;13.270;2023-07-08T02:21:58;7.20;;;5.80;;
15536;SDS011;7870;52.448;13.270;2023-07-08T02:24:24;7.03;;;6.07;;
15536;SDS011;7870;52.448;13.270;2023-07-08T02:26:51;7.05;;;5.40;;
15536;SDS011;7870;52.448;13.270;2023-07-08T02:29:17;7.38;;;5.80;;
15536;SDS011;7870;52.448;13.270;2023-07-08T02:31:44;7.25;;;6.47;;
15536;SDS011;7870;52.448;13.270;2023-07-08T02:34:10;7.65;;;5.30;;
15536;SDS011;7870;52.448;13.270;2023-07-08T02:36:37;7.47;;;5.80;;
15536;SDS011;7870;52.448;13.270;2023-07-08T02:39:05;9.10;;;6.38;;
15536;SDS011;7870;52.448;13.270;2023-07-08T02:41:32;7.00;;;6.18;;
15536;SDS011;7870;52.448;13.270;2023-07-08T02:43:58;7.75;;;6.25;;
15536;SDS011;7870;52.448;13.270;2023-07-08T02:46:24;7.50;;;5.35;;
15536;SDS011;7870;52.448;13.270;2023-07-08T02:48:51;7.88;;;5.55;;
15536;SDS011;7870;52.448;13.270;2023-07-08T02:51:18;7.18;;;6.45;;
15536;SDS011;7870;52.448;13.270;2023-07-08T02:53:44;9.20;;;6.57;;
15536;SDS011;7870;52.448;13.270;2023-07-08T02:56:10;7.57;;;6.10;;
15536;SDS011;7870;52.448;13.270;2023-07-08T02:58:37;9.85;;;6.50;;
15536;SDS011;7870;52.448;13.270;2023-07-08T03:01:03;7.95;;;6.35;;
15536;SDS011;7870;52.448;13.270;2023-07-08T03:03:30;9.55;;;6.78;;
15536;SDS011;7870;52.448;13.270;2023-07-08T03:05:58;7.93;;;6.00;;
15536;SDS011;7870;52.448;13.270;2023-07-08T03:08:25;7.18;;;6.47;;
15536;SDS011;7870;52.448;13.270;2023-07-08T03:10:56;7.35;;;6.20;;
15536;SDS011;7870;52.448;13.270;2023-07-08T03:13:23;7.82;;;6.97;;
15536;SDS011;7870;52.448;13.270;2023-07-08T03:15:50;8.23;;;6.82;;
15536;SDS011;7870;52.448;13.270;2023-07-08T03:18:17;9.05;;;6.72;;
15536;SDS011;7870;52.448;13.270;2023-07-08T03:20:43;10.82;;;6.40;;
15536;SDS011;7870;52.448;13.270;2023-07-08T03:23:12;7.60;;;6.80;;
15536;SDS011;7870;52.448;13.270;2023-07-08T03:25:38;7.22;;;6.53;;
15536;SDS011;7870;52.448;13.270;2023-07-08T03:28:06;7.50;;;6.10;;
15536;SDS011;7870;52.448;13.270;2023-07-08T03:30:33;9.25;;;6.57;;
15536;SDS011;7870;52.448;13.270;2023-07-08T03:33:00;9.93;;;6.78;;
15536;SDS011;7870;52.448;13.270;2023-07-08T03:35:27;7.82;;;6.53;;
15536;SDS011;7870;52.448;13.270;2023-07-08T03:37:54;9.57;;;7.00;;
15536;SDS011;7870;52.448;13.270;2023-07-08T03:40:20;7.68;;;6.88;;
15536;SDS011;7870;52.448;13.270;2023-07-08T03:42:47;8.10;;;6.35;;
15536;SDS011;7870;52.448;13.270;2023-07-08T03:45:14;7.82;;;6.13;;
15536;SDS011;7870;52.448;13.270;2023-07-08T03:47:42;9.25;;;6.40;;
15536;SDS011;7870;52.448;13.270;2023-07-08T03:50:20;7.53;;;6.70;;
15536;SDS011;7870;52.448;13.270;2023-07-08T03:52:50;8.27;;;6.18;;
15536;SDS011;7870;52.448;13.270;2023-07-08T03:55:17;9.95;;;6.03;;
15536;SDS011;7870;52.448;13.270;2023-07-08T03:57:44;7.03;;;5.95;;
15536;SDS011;7870;52.448;13.270;2023-07-08T04:00:10;8.02;;;5.97;;
15536;SDS011;7870;52.448;13.270;2023-07-08T04:02:41;8.90;;;6.00;;
15536;SDS011;7870;52.448;13.270;2023-07-08T04:05:15;9.52;;;6.60;;
15536;SDS011;7870;52.448;13.270;2023-07-08T04:07:42;7.28;;;6.05;;
15536;SDS011;7870;52.448;13.270;2023-07-08T04:10:10;7.55;;;6.40;;
15536;SDS011;7870;52.448;13.270;2023-07-08T04:12:36;8.45;;;6.22;;
15536;SDS011;7870;52.448;13.270;2023-07-08T04:15:03;7.47;;;6.55;;
15536;SDS011;7870;52.448;13.270;2023-07-08T04:17:30;9.10;;;6.30;;
15536;SDS011;7870;52.448;13.270;2023-07-08T04:20:08;8.23;;;6.57;;
15536;SDS011;7870;52.448;13.270;2023-07-08T04:23:50;9.20;;;5.72;;
15536;SDS011;7870;52.448;13.270;2023-07-08T04:26:17;7.65;;;6.35;;
15536;SDS011;7870;52.448;13.270;2023-07-08T04:28:45;9.93;;;6.47;;
15536;SDS011;7870;52.448;13.270;2023-07-08T04:31:12;10.68;;;6.97;;
15536;SDS011;7870;52.448;13.270;2023-07-08T04:33:38;8.35;;;5.93;;
15536;SDS011;7870;52.448;13.270;2023-07-08T04:36:05;9.82;;;6.25;;
15536;SDS011;7870;52.448;13.270;2023-07-08T04:38:37;7.70;;;6.35;;
15536;SDS011;7870;52.448;13.270;2023-07-08T04:41:04;8.57;;;6.38;;
15536;SDS011;7870;52.448;13.270;2023-07-08T04:43:31;9.60;;;6.43;;
15536;SDS011;7870;52.448;13.270;2023-07-08T04:45:58;7.28;;;5.57;;
15536;SDS011;7870;52.448;13.270;2023-07-08T04:48:25;9.77;;;6.78;;
15536;SDS011;7870;52.448;13.270;2023-07-08T04:50:52;8.00;;;5.60;;
15536;SDS011;7870;52.448;13.270;2023-07-08T04:53:19;8.48;;;5.75;;
15536;SDS011;7870;52.448;13.270;2023-07-08T04:55:50;8.82;;;6.03;;
15536;SDS011;7870;52.448;13.270;2023-07-08T04:58:18;9.40;;;6.15;;
15536;SDS011;7870;52.448;13.270;2023-07-08T05:00:44;7.75;;;6.28;;
15536;SDS011;7870;52.448;13.270;2023-07-08T05:03:11;7.22;;;5.50;;
15536;SDS011;7870;52.448;13.270;2023-07-08T05:05:37;12.80;;;6.55;;
15536;SDS011;7870;52.448;13.270;2023-07-08T05:08:04;9.68;;;6.38;;
15536;SDS011;7870;52.448;13.270;2023-07-08T05:10:30;8.45;;;6.15;;
15536;SDS011;7870;52.448;13.270;2023-07-08T05:12:57;7.07;;;5.85;;
15536;SDS011;7870;52.448;13.270;2023-07-08T05:15:23;10.27;;;5.60;;
15536;SDS011;7870;52.448;13.270;2023-07-08T05:17:50;8.30;;;6.13;;
15536;SDS011;7870;52.448;13.270;2023-07-08T05:20:16;9.90;;;5.95;;
15536;SDS011;7870;52.448;13.270;2023-07-08T05:22:45;8.90;;;5.70;;
15536;SDS011;7870;52.448;13.270;2023-07-08T05:25:12;8.55;;;5.80;;
15536;SDS011;7870;52.448;13.270;2023-07-08T05:27:39;11.35;;;7.00;;
15536;SDS011;7870;52.448;13.270;2023-07-08T05:30:06;8.75;;;5.75;;
15536;SDS011;7870;52.448;13.270;2023-07-08T05:32:33;8.77;;;5.20;;
15536;SDS011;7870;52.448;13.270;2023-07-08T05:34:59;6.22;;;5.07;;
15536;SDS011;7870;52.448;13.270;2023-07-08T05:37:26;8.30;;;4.97;;
15536;SDS011;7870;52.448;13.270;2023-07-08T05:39:55;5.82;;;4.90;;
15536;SDS011;7870;52.448;13.270;2023-07-08T05:42:21;9.18;;;5.22;;
15536;SDS011;7870;52.448;13.270;2023-07-08T05:44:48;6.57;;;4.22;;
15536;SDS011;7870;52.448;13.270;2023-07-08T05:47:14;5.45;;;4.47;;
15536;SDS011;7870;52.448;13.270;2023-07-08T05:49:41;7.70;;;4.55;;
15536;SDS011;7870;52.448;13.270;2023-07-08T05:52:08;8.18;;;5.00;;
15536;SDS011;7870;52.448;13.270;2023-07-08T05:54:37;22.23;;;10.52;;
15536;SDS011;7870;52.448;13.270;2023-07-08T05:57:05;8.00;;;4.90;;
15536;SDS011;7870;52.448;13.270;2023-07-08T05:59:32;11.57;;;5.38;;
15536;SDS011;7870;52.448;13.270;2023-07-08T06:02:01;7.25;;;4.80;;
15536;SDS011;7870;52.448;13.270;2023-07-08T06:04:28;7.35;;;3.65;;
15536;SDS011;7870;52.448;13.270;2023-07-08T06:06:55;8.18;;;4.65;;
15536;SDS011;7870;52.448;13.270;2023-07-08T06:09:21;5.95;;;4.65;;
15536;SDS011;7870;52.448;13.270;2023-07-08T06:11:47;6.63;;;4.00;;
15536;SDS011;7870;52.448;13.270;2023-07-08T06:14:14;6.13;;;3.97;;
15536;SDS011;7870;52.448;13.270;2023-07-08T06:16:40;5.95;;;4.32;;
15536;SDS011;7870;52.448;13.270;2023-07-08T06:19:09;10.90;;;4.93;;
15536;SDS011;7870;52.448;13.270;2023-07-08T06:21:35;8.77;;;3.78;;
15536;SDS011;7870;52.448;13.270;2023-07-08T06:24:02;13.50;;;5.40;;
15536;SDS011;7870;52.448;13.270;2023-07-08T06:26:28;6.43;;;3.90;;
15536;SDS011;7870;52.448;13.270;2023-07-08T06:28:55;4.85;;;3.53;;
15536;SDS011;7870;52.448;13.270;2023-07-08T06:31:21;4.35;;;3.15;;
15536;SDS011;7870;52.448;13.270;2023-07-08T06:33:48;5.20;;;3.45;;
15536;SDS011;7870;52.448;13.270;2023-07-08T06:36:14;4.60;;;3.50;;
15536;SDS011;7870;52.448;13.270;2023-07-08T06:38:59;5.18;;;3.30;;
15536;SDS011;7870;52.448;13.270;2023-07-08T06:42:43;5.68;;;3.67;;
15536;SDS011;7870;52.448;13.270;2023-07-08T06:53:28;6.43;;;3.30;;
15536;SDS011;7870;52.448;13.270;2023-07-08T06:55:55;3.85;;;3.05;;
15536;SDS011;7870;52.448;13.270;2023-07-08T06:58:22;6.13;;;3.25;;
15536;SDS011;7870;52.448;13.270;2023-07-08T07:00:48;4.78;;;2.72;;
15536;SDS011;7870;52.448;13.270;2023-07-08T07:03:15;6.88;;;3.50;;
15536;SDS011;7870;52.448;13.270;2023-07-08T07:05:42;5.78;;;3.50;;
15536;SDS011;7870;52.448;13.270;2023-07-08T07:08:09;4.13;;;2.90;;
15536;SDS011;7870;52.448;13.270;2023-07-08T07:10:36;7.38;;;2.95;;
15536;SDS011;7870;52.448;13.270;2023-07-08T07:13:03;5.45;;;3.55;;
15536;SDS011;7870;52.448;13.270;2023-07-08T07:15:29;4.40;;;3.00;;
15536;SDS011;7870;52.448;13.270;2023-07-08T07:17:56;5.30;;;2.83;;
15536;SDS011;7870;52.448;13.270;2023-07-08T07:20:24;5.63;;;2.85;;
15536;SDS011;7870;52.448;13.270;2023-07-08T07:22:51;4.80;;;2.63;;
15536;SDS011;7870;52.448;13.270;2023-07-08T07:25:18;5.82;;;2.58;;
15536;SDS011;7870;52.448;13.270;2023-07-08T07:27:45;5.38;;;3.08;;
15536;SDS011;7870;52.448;13.270;2023-07-08T07:30:12;5.72;;;3.33;;
15536;SDS011;7870;52.448;13.270;2023-07-08T07:32:41;4.60;;;2.55;;
15536;SDS011;7870;52.448;13.270;2023-07-08T07:35:11;8.30;;;3.10;;
15536;SDS011;7870;52.448;13.270;2023-07-08T07:37:39;6.10;;;2.80;;
15536;SDS011;7870;52.448;13.270;2023-07-08T07:40:07;5.28;;;2.90;;
15536;SDS011;7870;52.448;13.270;2023-07-08T07:42:39;8.75;;;3.00;;
15536;SDS011;7870;52.448;13.270;2023-07-08T07:45:06;4.88;;;2.67;;
15536;SDS011;7870;52.448;13.270;2023-07-08T07:47:33;7.07;;;3.28;;
15536;SDS011;7870;52.448;13.270;2023-07-08T07:50:03;6.10;;;2.78;;
15536;SDS011;7870;52.448;13.270;2023-07-08T07:52:30;6.07;;;2.95;;
15536;SDS011;7870;52.448;13.270;2023-07-08T07:54:57;4.60;;;2.63;;
15536;SDS011;7870;52.448;13.270;2023-07-08T07:57:24;4.82;;;2.90;;
15536;SDS011;7870;52.448;13.270;2023-07-08T07:59:50;4.90;;;2.47;;
15536;SDS011;7870;52.448;13.270;2023-07-08T08:02:17;5.20;;;2.63;;
15536;SDS011;7870;52.448;13.270;2023-07-08T08:04:44;5.70;;;2.72;;
15536;SDS011;7870;52.448;13.270;2023-07-08T08:07:11;5.65;;;2.30;;
15536;SDS011;7870;52.448;13.270;2023-07-08T08:09:37;3.22;;;2.03;;
15536;SDS011;7870;52.448;13.270;2023-07-08T08:12:04;4.45;;;2.67;;
15536;SDS011;7870;52.448;13.270;2023-07-08T08:14:30;5.22;;;2.70;;
15536;SDS011;7870;52.448;13.270;2023-07-08T08:16:57;5.30;;;3.17;;
15536;SDS011;7870;52.448;13.270;2023-07-08T08:19:24;4.70;;;2.33;;
15536;SDS011;7870;52.448;13.270;2023-07-08T08:21:50;4.32;;;2.67;;
15536;SDS011;7870;52.448;13.270;2023-07-08T08:24:20;4.05;;;2.60;;
15536;SDS011;7870;52.448;13.270;2023-07-08T08:26:53;6.22;;;2.67;;
15536;SDS011;7870;52.448;13.270;2023-07-08T08:29:20;3.70;;;2.25;;
15536;SDS011;7870;52.448;13.270;2023-07-08T08:31:47;3.70;;;2.60;;
15536;SDS011;7870;52.448;13.270;2023-07-08T08:34:20;5.90;;;2.50;;
15536;SDS011;7870;52.448;13.270;2023-07-08T08:36:46;3.75;;;2.15;;
15536;SDS011;7870;52.448;13.270;2023-07-08T08:39:13;4.05;;;2.10;;
15536;SDS011;7870;52.448;13.270;2023-07-08T08:41:40;3.33;;;1.90;;
15536;SDS011;7870;52.448;13.270;2023-07-08T08:44:13;5.25;;;2.40;;
15536;SDS011;7870;52.448;13.270;2023-07-08T08:46:53;3.42;;;2.38;;
15536;SDS011;7870;52.448;13.270;2023-07-08T08:49:26;5.43;;;2.78;;
15536;SDS011;7870;52.448;13.270;2023-07-08T08:51:56;3.35;;;2.00;;
15536;SDS011;7870;52.448;13.270;2023-07-08T08:54:24;4.93;;;2.20;;
15536;SDS011;7870;52.448;13.270;2023-07-08T08:59:31;3.33;;;1.90;;
15536;SDS011;7870;52.448;13.270;2023-07-08T09:02:07;4.43;;;2.05;;
15536;SDS011;7870;52.448;13.270;2023-07-08T09:04:40;3.05;;;1.75;;
15536;SDS011;7870;52.448;13.270;2023-07-08T09:07:08;3.38;;;1.98;;
15536;SDS011;7870;52.448;13.270;2023-07-08T09:09:42;4.43;;;1.80;;
15536;SDS011;7870;52.448;13.270;2023-07-08T09:12:18;14.98;;;2.70;;
15536;SDS011;7870;52.448;13.270;2023-07-08T09:14:46;3.50;;;1.70;;
15536;SDS011;7870;52.448;13.270;2023-07-08T09:22:41;5.95;;;2.05;;
15536;SDS011;7870;52.448;13.270;2023-07-08T09:27:42;5.80;;;2.35;;
15536;SDS011;7870;52.448;13.270;2023-07-08T09:30:12;4.55;;;2.10;;
15536;SDS011;7870;52.448;13.270;2023-07-08T09:32:52;3.78;;;1.88;;
15536;SDS011;7870;52.448;13.270;2023-07-08T09:35:29;4.47;;;1.80;;
15536;SDS011;7870;52.448;13.270;2023-07-08T09:38:09;7.35;;;2.13;;
15536;SDS011;7870;52.448;13.270;2023-07-08T09:40:42;6.00;;;1.83;;
15536;SDS011;7870;52.448;13.270;2023-07-08T09:45:40;4.85;;;1.90;;
15536;SDS011;7870;52.448;13.270;2023-07-08T09:48:14;4.22;;;1.88;;
15536;SDS011;7870;52.448;13.270;2023-07-08T09:50:46;3.83;;;1.80;;
15536;SDS011;7870;52.448;13.270;2023-07-08T09:53:13;3.55;;;2.17;;
15536;SDS011;7870;52.448;13.270;2023-07-08T09:55:40;2.90;;;1.85;;
15536;SDS011;7870;52.448;13.270;2023-07-08T09:58:10;4.28;;;2.17;;
15536;SDS011;7870;52.448;13.270;2023-07-08T10:00:38;3.65;;;1.75;;
15536;SDS011;7870;52.448;13.270;2023-07-08T10:03:11;3.22;;;1.95;;
15536;SDS011;7870;52.448;13.270;2023-07-08T10:05:40;4.65;;;1.95;;
15536;SDS011;7870;52.448;13.270;2023-07-08T10:08:15;3.08;;;2.08;;
15536;SDS011;7870;52.448;13.270;2023-07-08T10:10:43;2.72;;;1.60;;
15536;SDS011;7870;52.448;13.270;2023-07-08T10:13:23;5.73;;;2.13;;
15536;SDS011;7870;52.448;13.270;2023-07-08T10:15:54;2.90;;;1.70;;
15536;SDS011;7870;52.448;13.270;2023-07-08T10:18:28;2.95;;;2.00;;
15536;SDS011;7870;52.448;13.270;2023-07-08T10:23:43;4.30;;;2.13;;
15536;SDS011;7870;52.448;13.270;2023-07-08T10:26:14;3.22;;;2.30;;
15536;SDS011;7870;52.448;13.270;2023-07-08T10:28:45;4.15;;;1.98;;
15536;SDS011;7870;52.448;13.270;2023-07-08T10:39:31;6.43;;;2.25;;
15536;SDS011;7870;52.448;13.270;2023-07-08T10:42:15;3.83;;;2.20;;
15536;SDS011;7870;52.448;13.270;2023-07-08T10:50:49;4.82;;;2.67;;
15536;SDS011;7870;52.448;13.270;2023-07-08T10:53:37;4.80;;;2.38;;
15536;SDS011;7870;52.448;13.270;2023-07-08T10:56:11;3.83;;;2.00;;
15536;SDS011;7870;52.448;13.270;2023-07-08T10:58:46;3.53;;;2.00;;
15536;SDS011;7870;52.448;13.270;2023-07-08T11:01:25;3.63;;;2.22;;
15536;SDS011;7870;52.448;13.270;2023-07-08T11:04:12;3.63;;;1.90;;
15536;SDS011;7870;52.448;13.270;2023-07-08T11:09:21;3.88;;;2.28;;
15536;SDS011;7870;52.448;13.270;2023-07-08T11:11:54;2.85;;;1.83;;
15536;SDS011;7870;52.448;13.270;2023-07-08T11:14:24;3.97;;;2.05;;
15536;SDS011;7870;52.448;13.270;2023-07-08T11:19:29;3.85;;;2.13;;
15536;SDS011;7870;52.448;13.270;2023-07-08T11:21:58;3.25;;;1.95;;
15536;SDS011;7870;52.448;13.270;2023-07-08T11:24:38;3.22;;;1.90;;
15536;SDS011;7870;52.448;13.270;2023-07-08T11:32:29;2.88;;;1.90;;
15536;SDS011;7870;52.448;13.270;2023-07-08T11:34:57;4.07;;;2.30;;
15536;SDS011;7870;52.448;13.270;2023-07-08T11:37:25;4.32;;;2.17;;
15536;SDS011;7870;52.448;13.270;2023-07-08T11:39:53;3.17;;;1.70;;
15536;SDS011;7870;52.448;13.270;2023-07-08T11:44:59;3.70;;;2.13;;
15536;SDS011;7870;52.448;13.270;2023-07-08T11:47:37;3.45;;;2.05;;
15536;SDS011;7870;52.448;13.270;2023-07-08T11:50:13;2.72;;;1.83;;
15536;SDS011;7870;52.448;13.270;2023-07-08T11:52:49;6.30;;;2.60;;
15536;SDS011;7870;52.448;13.270;2023-07-08T11:55:20;5.00;;;2.47;;
15536;SDS011;7870;52.448;13.270;2023-07-08T11:57:47;4.43;;;2.15;;
15536;SDS011;7870;52.448;13.270;2023-07-08T12:00:20;4.60;;;2.25;;
15536;SDS011;7870;52.448;13.270;2023-07-08T12:02:49;5.35;;;2.38;;
15536;SDS011;7870;52.448;13.270;2023-07-08T12:05:16;3.40;;;2.30;;
15536;SDS011;7870;52.448;13.270;2023-07-08T12:07:47;3.00;;;1.80;;
15536;SDS011;7870;52.448;13.270;2023-07-08T12:10:19;4.20;;;2.25;;
15536;SDS011;7870;52.448;13.270;2023-07-08T12:12:48;3.42;;;2.10;;
15536;SDS011;7870;52.448;13.270;2023-07-08T12:15:17;4.50;;;2.38;;
15536;SDS011;7870;52.448;13.270;2023-07-08T12:17:46;4.88;;;2.17;;
15536;SDS011;7870;52.448;13.270;2023-07-08T12:20:21;4.10;;;2.55;;
15536;SDS011;7870;52.448;13.270;2023-07-08T12:22:48;4.90;;;2.53;;
15536;SDS011;7870;52.448;13.270;2023-07-08T12:25:16;3.63;;;2.35;;
15536;SDS011;7870;52.448;13.270;2023-07-08T12:27:44;5.13;;;2.10;;
15536;SDS011;7870;52.448;13.270;2023-07-08T12:30:11;3.30;;;2.10;;
15536;SDS011;7870;52.448;13.270;2023-07-08T12:32:39;5.10;;;2.50;;
15536;SDS011;7870;52.448;13.270;2023-07-08T12:35:08;4.47;;;2.30;;
15536;SDS011;7870;52.448;13.270;2023-07-08T12:37:39;6.20;;;1.90;;
15536;SDS011;7870;52.448;13.270;2023-07-08T12:40:08;3.30;;;2.10;;
15536;SDS011;7870;52.448;13.270;2023-07-08T12:42:36;5.78;;;2.45;;
15536;SDS011;7870;52.448;13.270;2023-07-08T12:45:02;5.13;;;2.00;;
15536;SDS011;7870;52.448;13.270;2023-07-08T12:47:29;2.80;;;1.90;;
15536;SDS011;7870;52.448;13.270;2023-07-08T12:49:55;3.78;;;2.33;;
15536;SDS011;7870;52.448;13.270;2023-07-08T12:52:22;4.57;;;2.15;;
15536;SDS011;7870;52.448;13.270;2023-07-08T12:54:49;6.22;;;2.25;;
15536;SDS011;7870;52.448;13.270;2023-07-08T12:57:16;4.45;;;2.17;;
15536;SDS011;7870;52.448;13.270;2023-07-08T12:59:43;4.70;;;2.17;;
15536;SDS011;7870;52.448;13.270;2023-07-08T13:02:18;2.80;;;1.95;;
15536;SDS011;7870;52.448;13.270;2023-07-08T13:04:46;4.65;;;2.30;;
15536;SDS011;7870;52.448;13.270;2023-07-08T13:07:20;3.63;;;2.17;;
15536;SDS011;7870;52.448;13.270;2023-07-08T13:09:50;5.10;;;2.45;;
15536;SDS011;7870;52.448;13.270;2023-07-08T13:12:18;3.97;;;2.20;;
15536;SDS011;7870;52.448;13.270;2023-07-08T13:14:48;4.50;;;2.15;;
15536;SDS011;7870;52.448;13.270;2023-07-08T13:17:15;4.80;;;2.30;;
15536;SDS011;7870;52.448;13.270;2023-07-08T13:19:42;6.28;;;2.35;;
15536;SDS011;7870;52.448;13.270;2023-07-08T13:22:12;2.97;;;2.10;;
15536;SDS011;7870;52.448;13.270;2023-07-08T13:24:38;4.45;;;2.15;;
15536;SDS011;7870;52.448;13.270;2023-07-08T13:27:07;3.50;;;2.45;;
15536;SDS011;7870;52.448;13.270;2023-07-08T13:29:34;7.15;;;2.45;;
15536;SDS011;7870;52.448;13.270;2023-07-08T13:32:04;4.07;;;2.25;;
15536;SDS011;7870;52.448;13.270;2023-07-08T13:34:32;5.85;;;2.50;;
15536;SDS011;7870;52.448;13.270;2023-07-08T13:36:58;3.88;;;2.47;;
15536;SDS011;7870;52.448;13.270;2023-07-08T13:39:32;5.10;;;2.50;;
15536;SDS011;7870;52.448;13.270;2023-07-08T13:41:59;5.15;;;2.42;;
15536;SDS011;7870;52.448;13.270;2023-07-08T13:44:31;4.03;;;2.65;;
15536;SDS011;7870;52.448;13.270;2023-07-08T13:46:57;3.13;;;2.40;;
15536;SDS011;7870;52.448;13.270;2023-07-08T13:49:31;3.75;;;2.25;;
15536;SDS011;7870;52.448;13.270;2023-07-08T13:52:15;7.15;;;2.33;;
15536;SDS011;7870;52.448;13.270;2023-07-08T13:54:45;3.92;;;2.13;;
15536;SDS011;7870;52.448;13.270;2023-07-08T13:57:14;3.20;;;2.15;;
15536;SDS011;7870;52.448;13.270;2023-07-08T13:59:41;5.20;;;2.65;;
15536;SDS011;7870;52.448;13.270;2023-07-08T14:04:40;3.47;;;2.40;;
15536;SDS011;7870;52.448;13.270;2023-07-08T14:07:15;6.05;;;2.45;;
15536;SDS011;7870;52.448;13.270;2023-07-08T14:09:42;3.80;;;2.72;;
15536;SDS011;7870;52.448;13.270;2023-07-08T14:12:09;4.05;;;2.65;;
15536;SDS011;7870;52.448;13.270;2023-07-08T14:14:35;3.88;;;2.50;;
15536;SDS011;7870;52.448;13.270;2023-07-08T14:17:02;4.30;;;2.72;;
15536;SDS011;7870;52.448;13.270;2023-07-08T14:19:32;3.45;;;2.33;;
15536;SDS011;7870;52.448;13.270;2023-07-08T14:22:23;4.70;;;2.42;;
15536;SDS011;7870;52.448;13.270;2023-07-08T14:24:46;3.95;;;2.67;;
15536;SDS011;7870;52.448;13.270;2023-07-08T14:27:13;5.65;;;2.70;;
15536;SDS011;7870;52.448;13.270;2023-07-08T14:29:40;7.40;;;2.33;;
15536;SDS011;7870;52.448;13.270;2023-07-08T14:32:14;6.70;;;2.40;;
15536;SDS011;7870;52.448;13.270;2023-07-08T14:34:41;3.28;;;2.30;;
15536;SDS011;7870;52.448;13.270;2023-07-08T14:37:17;5.05;;;2.63;;
15536;SDS011;7870;52.448;13.270;2023-07-08T14:39:44;3.80;;;2.42;;
15536;SDS011;7870;52.448;13.270;2023-07-08T14:42:12;6.93;;;2.50;;
15536;SDS011;7870;52.448;13.270;2023-07-08T14:44:39;4.25;;;2.38;;
15536;SDS011;7870;52.448;13.270;2023-07-08T14:47:08;4.03;;;2.33;;
15536;SDS011;7870;52.448;13.270;2023-07-08T14:49:34;3.72;;;2.45;;
15536;SDS011;7870;52.448;13.270;2023-07-08T14:52:01;4.03;;;2.50;;
15536;SDS011;7870;52.448;13.270;2023-07-08T14:54:27;4.25;;;2.67;;
15536;SDS011;7870;52.448;13.270;2023-07-08T14:57:15;4.95;;;2.47;;
15536;SDS011;7870;52.448;13.270;2023-07-08T14:59:42;5.45;;;2.50;;
15536;SDS011;7870;52.448;13.270;2023-07-08T15:02:16;3.50;;;2.55;;
15536;SDS011;7870;52.448;13.270;2023-07-08T15:04:43;5.57;;;2.60;;
15536;SDS011;7870;52.448;13.270;2023-07-08T15:07:09;3.75;;;2.67;;
15536;SDS011;7870;52.448;13.270;2023-07-08T15:09:36;4.38;;;2.70;;
15536;SDS011;7870;52.448;13.270;2023-07-08T15:12:02;3.92;;;2.65;;
15536;SDS011;7870;52.448;13.270;2023-07-08T15:14:29;3.70;;;2.38;;
15536;SDS011;7870;52.448;13.270;2023-07-08T15:16:56;4.32;;;2.45;;
15536;SDS011;7870;52.448;13.270;2023-07-08T15:19:22;6.13;;;2.65;;
15536;SDS011;7870;52.448;13.270;2023-07-08T15:21:50;5.60;;;2.42;;
15536;SDS011;7870;52.448;13.270;2023-07-08T15:24:17;4.03;;;2.40;;
15536;SDS011;7870;52.448;13.270;2023-07-08T15:26:47;3.30;;;2.15;;
15536;SDS011;7870;52.448;13.270;2023-07-08T15:29:18;3.88;;;2.50;;
15536;SDS011;7870;52.448;13.270;2023-07-08T15:31:45;4.72;;;2.80;;
15536;SDS011;7870;52.448;13.270;2023-07-08T15:34:16;4.32;;;2.30;;
15536;SDS011;7870;52.448;13.270;2023-07-08T15:36:42;4.60;;;2.63;;
15536;SDS011;7870;52.448;13.270;2023-07-08T15:39:09;3.58;;;2.65;;
15536;SDS011;7870;52.448;13.270;2023-07-08T15:41:35;3.92;;;3.08;;
15536;SDS011;7870;52.448;13.270;2023-07-08T15:44:02;3.35;;;2.40;;
15536;SDS011;7870;52.448;13.270;2023-07-08T15:46:32;5.15;;;3.67;;
15536;SDS011;7870;52.448;13.270;2023-07-08T15:49:00;3.45;;;2.28;;
15536;SDS011;7870;52.448;13.270;2023-07-08T15:51:26;3.45;;;2.25;;
15536;SDS011;7870;52.448;13.270;2023-07-08T15:53:53;5.28;;;2.88;;